createdAt,value
2024-02-24T00:00:28.911Z,4.78
2024-02-24T00:02:56.172Z,4.07
2024-02-24T00:05:26.840Z,4.50
2024-02-24T00:07:54.572Z,4.20
2024-02-24T00:10:22.852Z,4.32
2024-02-24T00:12:50.593Z,4.65
2024-02-24T00:15:17.486Z,4.55
2024-02-24T00:17:44.854Z,4.90
2024-02-24T00:20:12.691Z,4.00
2024-02-24T00:22:39.860Z,4.43
2024-02-24T00:25:07.171Z,4.60
2024-02-24T00:27:34.104Z,4.20
2024-02-24T00:30:00.933Z,4.30
2024-02-24T00:32:27.890Z,4.70
2024-02-24T00:34:54.763Z,4.10
2024-02-24T00:37:21.629Z,4.25
2024-02-24T00:39:48.494Z,4.75
2024-02-24T00:42:15.592Z,5.13
2024-02-24T00:44:42.515Z,4.30
2024-02-24T00:47:09.397Z,5.28
2024-02-24T00:49:36.319Z,5.32
2024-02-24T00:52:03.717Z,5.07
2024-02-24T00:54:30.582Z,4.78
2024-02-24T00:56:57.602Z,5.50
2024-02-24T00:59:24.820Z,5.15
2024-02-24T01:01:51.736Z,5.28
2024-02-24T01:04:21.377Z,5.57
2024-02-24T01:06:52.572Z,5.30
2024-02-24T01:09:21.303Z,4.93
2024-02-24T01:11:48.487Z,4.82
2024-02-24T01:14:15.892Z,5.35
2024-02-24T01:16:45.705Z,5.57
2024-02-24T01:19:12.959Z,5.40
2024-02-24T01:21:43.675Z,5.05
2024-02-24T01:24:10.701Z,5.82
2024-02-24T01:26:38.211Z,5.53
2024-02-24T01:29:05.392Z,5.35
2024-02-24T01:31:33.115Z,5.00
2024-02-24T01:34:00.269Z,5.15
2024-02-24T01:36:27.130Z,5.18
2024-02-24T01:38:56.693Z,5.63
2024-02-24T01:41:23.617Z,5.70
2024-02-24T01:43:51.734Z,5.53
2024-02-24T01:46:18.648Z,4.38
2024-02-24T01:48:46.837Z,4.93
2024-02-24T01:51:16.264Z,5.15
2024-02-24T01:53:44.245Z,4.85
2024-02-24T01:56:11.696Z,4.68
2024-02-24T01:58:39.107Z,4.82
2024-02-24T02:01:09.669Z,4.63
2024-02-24T02:03:38.084Z,4.97
2024-02-24T02:06:05.898Z,4.43
2024-02-24T02:08:33.327Z,4.80
2024-02-24T02:11:00.372Z,4.18
2024-02-24T02:13:27.676Z,4.00
2024-02-24T02:15:57.863Z,4.65
2024-02-24T02:18:25.114Z,5.32
2024-02-24T02:20:53.268Z,4.18
2024-02-24T02:23:21.207Z,4.68
2024-02-24T02:25:48.116Z,4.30
2024-02-24T02:28:15.252Z,4.30
2024-02-24T02:30:42.149Z,4.78
2024-02-24T02:33:12.234Z,4.97
2024-02-24T02:35:39.771Z,5.22
2024-02-24T02:38:11.659Z,4.95
2024-02-24T02:40:38.687Z,4.63
2024-02-24T02:43:06.116Z,4.70
2024-02-24T02:45:33.069Z,5.75
2024-02-24T02:48:00.071Z,4.88
2024-02-24T02:50:27.241Z,5.35
2024-02-24T02:52:54.716Z,4.65
2024-02-24T02:55:22.191Z,5.10
2024-02-24T02:57:50.231Z,4.78
2024-02-24T03:00:18.064Z,4.75
2024-02-24T03:02:45.549Z,5.07
2024-02-24T03:05:12.877Z,5.03
2024-02-24T03:07:39.773Z,4.53
2024-02-24T03:10:07.406Z,4.68
2024-02-24T03:12:34.381Z,5.47
2024-02-24T03:15:01.433Z,5.55
2024-02-24T03:17:28.405Z,5.45
2024-02-24T03:19:55.399Z,5.05
2024-02-24T03:22:22.321Z,5.57
2024-02-24T03:24:49.381Z,5.78
2024-02-24T03:27:17.828Z,5.18
2024-02-24T03:29:44.924Z,5.47
2024-02-24T03:32:11.939Z,5.45
2024-02-24T03:34:38.857Z,5.72
2024-02-24T03:37:05.914Z,6.22
2024-02-24T03:39:32.842Z,6.20
2024-02-24T03:41:59.598Z,5.25
2024-02-24T03:44:26.484Z,6.05
2024-02-24T03:46:54.060Z,6.30
2024-02-24T03:49:20.989Z,5.43
2024-02-24T03:51:48.025Z,5.85
2024-02-24T03:54:14.824Z,5.65
2024-02-24T03:56:41.776Z,5.30
2024-02-24T03:59:08.780Z,5.93
2024-02-24T04:01:35.823Z,5.88
2024-02-24T04:04:02.743Z,5.72
2024-02-24T04:06:29.673Z,5.25
2024-02-24T04:08:56.551Z,5.88
2024-02-24T04:11:24.063Z,5.93
2024-02-24T04:13:51.091Z,6.00
2024-02-24T04:16:21.023Z,6.15
2024-02-24T04:18:47.936Z,6.00
2024-02-24T04:21:14.983Z,6.45
2024-02-24T04:23:41.911Z,5.50
2024-02-24T04:26:08.846Z,5.80
2024-02-24T04:28:35.781Z,6.20
2024-02-24T04:31:02.792Z,6.63
2024-02-24T04:33:29.822Z,5.72
2024-02-24T04:35:56.910Z,6.43
2024-02-24T04:38:23.820Z,5.32
2024-02-24T04:40:50.624Z,5.72
2024-02-24T04:43:17.649Z,6.07
2024-02-24T04:45:45.199Z,6.68
2024-02-24T04:48:12.157Z,6.63
2024-02-24T04:50:39.876Z,6.93
2024-02-24T04:53:06.795Z,5.65
2024-02-24T04:55:33.581Z,6.78
2024-02-24T04:58:00.416Z,6.32
2024-02-24T05:00:27.538Z,6.80
2024-02-24T05:02:54.471Z,6.90
2024-02-24T05:05:21.961Z,7.00
2024-02-24T05:07:48.964Z,7.05
2024-02-24T05:10:16.006Z,6.15
2024-02-24T05:12:49.435Z,7.20
2024-02-24T05:15:19.536Z,7.00
2024-02-24T05:17:46.828Z,6.53
2024-02-24T05:20:14.335Z,7.25
2024-02-24T05:22:41.358Z,7.03
2024-02-24T05:25:12.108Z,6.55
2024-02-24T05:27:39.163Z,5.70
2024-02-24T05:30:06.743Z,6.80
2024-02-24T05:32:33.812Z,6.50
2024-02-24T05:35:00.969Z,7.80
2024-02-24T05:37:28.031Z,7.97
2024-02-24T05:39:55.157Z,7.80
2024-02-24T05:42:22.032Z,8.38
2024-02-24T05:44:49.148Z,7.10
2024-02-24T05:47:15.907Z,8.68
2024-02-24T05:49:42.832Z,6.88
2024-02-24T05:52:10.831Z,7.18
2024-02-24T05:54:40.920Z,7.80
2024-02-24T05:57:08.914Z,7.70
2024-02-24T05:59:36.689Z,7.78
2024-02-24T06:02:03.893Z,8.30
2024-02-24T06:04:30.987Z,7.25
2024-02-24T06:06:58.853Z,7.47
2024-02-24T06:09:26.159Z,7.63
2024-02-24T06:11:53.221Z,8.07
2024-02-24T06:14:20.247Z,6.55
2024-02-24T06:16:47.158Z,8.50
2024-02-24T06:19:14.149Z,7.72
2024-02-24T06:21:41.484Z,8.23
2024-02-24T06:24:08.489Z,8.18
2024-02-24T06:26:35.392Z,8.13
2024-02-24T06:29:02.299Z,7.50
2024-02-24T06:31:29.209Z,8.57
2024-02-24T06:33:56.247Z,8.90
2024-02-24T06:36:23.338Z,9.07
2024-02-24T06:38:50.461Z,9.25
2024-02-24T06:41:19.443Z,8.95
2024-02-24T06:43:47.961Z,9.13
2024-02-24T06:46:15.806Z,9.23
2024-02-24T06:48:43.465Z,8.82
2024-02-24T06:51:10.885Z,8.35
2024-02-24T06:53:37.898Z,9.20
2024-02-24T06:56:11.525Z,8.85
2024-02-24T06:58:38.780Z,8.80
2024-02-24T07:01:05.997Z,8.52
2024-02-24T07:03:34.625Z,9.40
2024-02-24T07:06:02.946Z,7.05
2024-02-24T07:08:30.138Z,7.53
2024-02-24T07:10:57.286Z,8.52
2024-02-24T07:13:24.521Z,9.23
2024-02-24T07:15:51.466Z,9.85
2024-02-24T07:18:18.492Z,8.20
2024-02-24T07:20:46.034Z,8.77
2024-02-24T07:23:13.226Z,8.10
2024-02-24T07:25:40.454Z,8.15
2024-02-24T07:28:07.746Z,10.20
2024-02-24T07:30:34.745Z,8.98
2024-02-24T07:33:02.437Z,8.98
2024-02-24T07:35:29.590Z,9.93
2024-02-24T07:37:56.595Z,10.05
2024-02-24T07:40:23.693Z,9.88
2024-02-24T07:42:51.844Z,10.48
2024-02-24T07:45:18.749Z,9.30
2024-02-24T07:47:45.791Z,8.73
2024-02-24T07:50:13.315Z,10.68
2024-02-24T07:52:40.362Z,8.40
2024-02-24T07:55:08.016Z,9.75
2024-02-24T07:57:34.957Z,8.98
2024-02-24T08:00:03.077Z,8.95
2024-02-24T08:02:32.901Z,8.35
2024-02-24T08:05:00.312Z,8.27
2024-02-24T08:07:27.434Z,7.30
2024-02-24T08:09:54.334Z,8.40
2024-02-24T08:12:21.455Z,8.40
2024-02-24T08:14:48.399Z,7.70
2024-02-24T08:17:15.574Z,8.38
2024-02-24T08:19:43.407Z,7.40
2024-02-24T08:22:10.496Z,7.55
2024-02-24T08:24:37.481Z,6.72
2024-02-24T08:27:05.040Z,7.80
2024-02-24T08:29:33.147Z,7.63
2024-02-24T08:32:00.232Z,6.57
2024-02-24T08:34:27.062Z,6.97
2024-02-24T08:36:54.537Z,5.88
2024-02-24T08:39:21.377Z,6.63
2024-02-24T08:41:48.261Z,6.50
2024-02-24T08:44:15.473Z,6.43
2024-02-24T08:46:42.592Z,6.15
2024-02-24T08:49:09.429Z,6.10
2024-02-24T08:51:36.365Z,5.93
2024-02-24T08:54:03.678Z,6.57
2024-02-24T08:56:30.954Z,5.45
2024-02-24T08:58:57.844Z,5.07
2024-02-24T09:01:24.934Z,4.85
2024-02-24T09:03:52.066Z,4.93
2024-02-24T09:06:19.304Z,4.63
2024-02-24T09:08:46.435Z,7.22
2024-02-24T09:11:13.591Z,4.50
2024-02-24T09:13:40.565Z,4.70
2024-02-24T09:16:07.608Z,4.40
2024-02-24T09:18:34.584Z,3.47
2024-02-24T09:21:01.672Z,3.35
2024-02-24T09:23:28.510Z,2.47
2024-02-24T09:25:55.514Z,3.53
2024-02-24T09:28:22.382Z,3.47
2024-02-24T09:30:49.239Z,3.22
2024-02-24T09:33:16.334Z,2.75
2024-02-24T09:35:43.421Z,4.05
2024-02-24T09:38:10.511Z,3.10
2024-02-24T09:40:37.544Z,3.30
2024-02-24T09:43:06.267Z,3.17
2024-02-24T09:45:35.984Z,3.08
2024-02-24T09:48:04.075Z,3.42
2024-02-24T09:50:31.720Z,3.75
2024-02-24T09:52:58.847Z,2.90
2024-02-24T09:55:26.320Z,3.10
2024-02-24T09:57:57.182Z,3.47
2024-02-24T10:00:24.819Z,3.58
2024-02-24T10:02:51.834Z,3.42
2024-02-24T10:05:18.968Z,3.65
2024-02-24T10:07:49.158Z,3.30
2024-02-24T10:10:18.267Z,3.03
2024-02-24T10:12:59.489Z,3.63
2024-02-24T10:15:27.288Z,3.67
2024-02-24T10:18:00.723Z,3.03
2024-02-24T10:20:28.806Z,3.72
2024-02-24T10:22:56.221Z,3.55
2024-02-24T10:25:23.684Z,3.05
2024-02-24T10:27:51.027Z,3.25
2024-02-24T10:30:20.967Z,2.90
2024-02-24T10:32:53.657Z,2.75
2024-02-24T10:35:21.128Z,2.63
2024-02-24T10:38:09.578Z,2.90
2024-02-24T10:40:39.624Z,2.78
2024-02-24T10:43:07.554Z,2.30
2024-02-24T10:45:34.664Z,2.83
2024-02-24T10:48:02.251Z,2.60
2024-02-24T10:50:29.372Z,3.03
2024-02-24T10:52:59.194Z,2.72
2024-02-24T10:55:27.558Z,3.00
2024-02-24T10:57:56.138Z,1.90
2024-02-24T11:00:36.142Z,2.50
2024-02-24T11:03:06.019Z,1.90
2024-02-24T11:05:34.889Z,2.38
2024-02-24T11:08:03.307Z,2.30
2024-02-24T11:10:35.294Z,2.20
2024-02-24T11:13:03.718Z,2.10
2024-02-24T11:15:30.678Z,2.25
2024-02-24T11:17:59.286Z,2.22
2024-02-24T11:20:38.932Z,1.85
2024-02-24T11:23:27.265Z,2.10
2024-02-24T11:26:13.822Z,1.98
2024-02-24T11:28:42.979Z,1.92
2024-02-24T11:31:10.005Z,1.92
2024-02-24T11:33:39.284Z,1.60
2024-02-24T11:36:07.329Z,1.90
2024-02-24T11:38:35.180Z,1.92
2024-02-24T11:41:06.205Z,2.00
2024-02-24T11:43:34.084Z,2.00
2024-02-24T11:46:02.399Z,2.83
2024-02-24T11:48:29.642Z,1.73
2024-02-24T11:50:57.050Z,1.67
2024-02-24T11:53:24.890Z,1.73
2024-02-24T11:55:51.965Z,1.73
2024-02-24T11:58:19.343Z,1.48
2024-02-24T12:00:47.129Z,1.77
2024-02-24T12:03:15.446Z,2.30
2024-02-24T12:05:43.642Z,2.05
2024-02-24T12:08:14.497Z,2.30
2024-02-24T12:10:44.108Z,2.35
2024-02-24T12:13:14.571Z,2.20
2024-02-24T12:15:44.438Z,0.70
2024-02-24T12:18:12.428Z,0.52
2024-02-24T12:20:44.768Z,0.10
2024-02-24T12:23:12.577Z,0.20
2024-02-24T12:25:39.572Z,0.60
2024-02-24T12:28:06.995Z,0.25
2024-02-24T12:30:39.497Z,0.00
2024-02-24T12:33:12.287Z,0.20
2024-02-24T12:35:42.014Z,0.68
2024-02-24T12:38:18.181Z,0.20
2024-02-24T12:40:47.832Z,0.52
2024-02-24T12:43:14.863Z,1.25
2024-02-24T12:45:41.871Z,1.45
2024-02-24T12:48:09.353Z,1.60
2024-02-24T12:50:38.051Z,2.10
2024-02-24T12:53:08.158Z,2.63
2024-02-24T12:55:35.026Z,2.67
2024-02-24T12:58:01.952Z,1.70
2024-02-24T13:00:29.123Z,0.50
2024-02-24T13:03:00.870Z,0.50
2024-02-24T13:07:55.547Z,0.20
2024-02-24T13:10:23.326Z,0.10
2024-02-24T13:12:50.444Z,0.10
2024-02-24T13:15:17.672Z,0.03
2024-02-24T13:17:44.662Z,0.10
2024-02-24T13:20:11.747Z,0.00
2024-02-24T13:22:41.682Z,0.10
2024-02-24T13:25:11.505Z,0.03
2024-02-24T13:27:38.425Z,0.00
2024-02-24T13:30:06.377Z,0.10
2024-02-24T13:32:33.624Z,0.10
2024-02-24T13:35:00.535Z,0.05
2024-02-24T13:37:27.557Z,0.10
2024-02-24T13:39:54.984Z,0.40
2024-02-24T13:42:21.745Z,0.30
2024-02-24T13:44:48.576Z,0.20
2024-02-24T13:47:16.439Z,0.20
2024-02-24T13:49:43.601Z,0.20
2024-02-24T13:52:10.452Z,2.40
2024-02-24T13:54:38.058Z,0.10
2024-02-24T13:57:05.482Z,0.15
2024-02-24T13:59:34.125Z,0.10
2024-02-24T14:02:01.026Z,0.17
2024-02-24T14:04:28.108Z,0.30
2024-02-24T14:06:57.249Z,0.13
2024-02-24T14:09:24.302Z,0.15
2024-02-24T14:11:53.317Z,0.20
2024-02-24T14:14:20.434Z,0.38
2024-02-24T14:16:48.487Z,0.00
2024-02-24T14:19:15.385Z,0.10
2024-02-24T14:21:42.272Z,0.10
2024-02-24T14:24:09.030Z,0.30
2024-02-24T14:26:36.244Z,0.20
2024-02-24T14:29:03.804Z,0.30
2024-02-24T14:31:32.284Z,0.32
2024-02-24T14:34:00.844Z,0.20
2024-02-24T14:36:28.162Z,0.50
2024-02-24T14:38:55.190Z,0.52
2024-02-24T14:41:22.955Z,0.30
2024-02-24T14:43:50.179Z,0.68
2024-02-24T14:46:16.987Z,0.40
2024-02-24T14:48:44.013Z,0.65
2024-02-24T14:51:11.019Z,0.60
2024-02-24T14:53:37.914Z,0.40
2024-02-24T14:56:05.504Z,0.88
2024-02-24T14:58:32.289Z,1.27
2024-02-24T15:00:59.975Z,3.80
2024-02-24T15:03:26.921Z,2.08
2024-02-24T15:05:53.850Z,1.70
2024-02-24T15:08:21.011Z,7.22
2024-02-24T15:10:47.796Z,3.45
2024-02-24T15:13:20.144Z,5.60
2024-02-24T15:15:50.037Z,5.47
2024-02-24T15:18:16.953Z,6.97
2024-02-24T15:20:44.906Z,4.45
2024-02-24T15:23:13.780Z,6.55
2024-02-24T15:25:40.693Z,4.97
2024-02-24T15:28:07.657Z,2.70
2024-02-24T15:30:34.416Z,1.80
2024-02-24T15:33:02.474Z,2.85
2024-02-24T15:35:30.052Z,2.50
2024-02-24T15:37:56.941Z,2.42
2024-02-24T15:40:23.644Z,2.25
2024-02-24T15:42:50.334Z,2.17
2024-02-24T15:45:17.184Z,2.20
2024-02-24T15:47:44.100Z,2.05
2024-02-24T15:50:11.090Z,2.00
2024-02-24T15:52:38.017Z,2.40
2024-02-24T15:55:05.114Z,2.33
2024-02-24T15:57:31.849Z,1.90
2024-02-24T15:59:58.685Z,1.90
2024-02-24T16:02:25.578Z,2.00
2024-02-24T16:04:52.524Z,1.73
2024-02-24T16:07:19.433Z,2.35
2024-02-24T16:09:46.171Z,1.80
2024-02-24T16:12:13.043Z,1.88
2024-02-24T16:14:39.918Z,2.15
2024-02-24T16:17:06.943Z,2.13
2024-02-24T16:19:33.961Z,2.00
2024-02-24T16:22:00.731Z,2.17
2024-02-24T16:24:30.055Z,2.08
2024-02-24T16:26:57.929Z,8.05
2024-02-24T16:29:24.987Z,5.78
2024-02-24T16:31:51.815Z,6.88
2024-02-24T16:34:18.760Z,4.82
2024-02-24T16:36:45.867Z,4.53
2024-02-24T16:39:12.839Z,9.07
2024-02-24T16:41:40.824Z,9.30
2024-02-24T16:44:10.681Z,9.88
2024-02-24T16:46:44.095Z,9.38
2024-02-24T16:49:11.146Z,6.57
2024-02-24T16:51:38.105Z,5.80
2024-02-24T16:54:05.046Z,4.88
2024-02-24T16:56:34.329Z,5.03
2024-02-24T16:59:01.218Z,4.40
2024-02-24T17:01:28.701Z,2.80
2024-02-24T17:03:55.721Z,3.17
2024-02-24T17:06:22.673Z,2.92
2024-02-24T17:08:49.947Z,2.67
2024-02-24T17:11:20.949Z,2.60
2024-02-24T17:13:48.096Z,2.00
2024-02-24T17:16:15.305Z,0.88
2024-02-24T17:18:42.372Z,0.70
2024-02-24T17:21:09.444Z,0.88
2024-02-24T17:23:38.864Z,0.70
2024-02-24T17:26:06.113Z,0.75
2024-02-24T17:28:32.992Z,0.60
2024-02-24T17:31:00.494Z,0.70
2024-02-24T17:33:27.293Z,0.80
2024-02-24T17:35:54.238Z,0.60
2024-02-24T17:38:25.396Z,0.95
2024-02-24T17:40:52.242Z,1.15
2024-02-24T17:43:19.046Z,0.80
2024-02-24T17:45:45.792Z,0.93
2024-02-24T17:48:12.777Z,1.00
2024-02-24T17:50:39.659Z,0.75
2024-02-24T17:53:06.418Z,1.10
2024-02-24T17:55:33.383Z,1.55
2024-02-24T17:58:00.174Z,2.00
2024-02-24T18:00:28.557Z,1.75
2024-02-24T18:02:56.304Z,1.60
2024-02-24T18:05:23.313Z,1.52
2024-02-24T18:07:50.090Z,1.48
2024-02-24T18:10:17.465Z,1.67
2024-02-24T18:12:44.270Z,1.52
2024-02-24T18:15:12.506Z,1.70
2024-02-24T18:17:39.673Z,1.90
2024-02-24T18:20:10.443Z,2.03
2024-02-24T18:22:38.046Z,1.80
2024-02-24T18:25:07.520Z,1.48
2024-02-24T18:27:34.257Z,1.48
2024-02-24T18:30:04.577Z,1.65
2024-02-24T18:32:33.194Z,1.92
2024-02-24T18:35:00.082Z,1.77
2024-02-24T18:37:26.944Z,2.05
2024-02-24T18:39:55.908Z,3.22
2024-02-24T18:42:23.823Z,3.60
2024-02-24T18:44:50.756Z,3.47
2024-02-24T18:47:17.650Z,3.92
2024-02-24T18:49:44.365Z,4.53
2024-02-24T18:52:12.949Z,3.00
2024-02-24T18:54:39.895Z,3.45
2024-02-24T18:57:06.974Z,3.03
2024-02-24T18:59:33.844Z,2.60
2024-02-24T19:02:00.609Z,3.08
2024-02-24T19:04:27.268Z,2.58
2024-02-24T19:06:54.261Z,3.65
2024-02-24T19:09:21.267Z,4.30
2024-02-24T19:11:48.689Z,3.80
2024-02-24T19:14:15.825Z,3.90
2024-02-24T19:16:42.665Z,4.28
2024-02-24T19:19:09.647Z,3.75
2024-02-24T19:21:36.426Z,3.78
2024-02-24T19:24:03.312Z,4.05
2024-02-24T19:26:30.236Z,3.58
2024-02-24T19:28:56.942Z,3.53
2024-02-24T19:31:23.691Z,3.53
2024-02-24T19:33:50.390Z,3.28
2024-02-24T19:36:17.319Z,4.22
2024-02-24T19:38:44.143Z,4.93
2024-02-24T19:41:10.892Z,4.05
2024-02-24T19:43:37.532Z,4.00
2024-02-24T19:46:04.289Z,3.42
2024-02-24T19:48:31.185Z,4.45
2024-02-24T19:50:58.855Z,3.97
2024-02-24T19:53:25.824Z,4.22
2024-02-24T19:55:52.558Z,4.72
2024-02-24T19:58:28.776Z,4.25
2024-02-24T20:01:02.307Z,5.38
2024-02-24T20:03:29.031Z,4.22
2024-02-24T20:05:55.959Z,4.75
2024-02-24T20:08:22.797Z,4.60
2024-02-24T20:10:49.716Z,5.10
2024-02-24T20:13:16.680Z,4.95
2024-02-24T20:15:43.361Z,5.10
2024-02-24T20:18:10.332Z,4.80
2024-02-24T20:20:37.062Z,3.95
2024-02-24T20:23:04.008Z,3.38
2024-02-24T20:25:30.763Z,4.07
2024-02-24T20:27:57.462Z,3.88
2024-02-24T20:30:24.097Z,4.15
2024-02-24T20:32:53.919Z,4.05
2024-02-24T20:35:21.422Z,3.35
2024-02-24T20:37:48.768Z,3.40
2024-02-24T20:40:16.001Z,3.35
2024-02-24T20:42:42.729Z,3.05
2024-02-24T20:45:09.947Z,2.42
2024-02-24T20:47:36.731Z,2.67
2024-02-24T20:50:03.864Z,2.10
2024-02-24T20:52:30.593Z,1.75
2024-02-24T20:54:57.341Z,1.40
2024-02-24T20:57:24.157Z,1.75
2024-02-24T20:59:51.836Z,2.10
2024-02-24T21:02:18.920Z,2.25
2024-02-24T21:04:45.669Z,2.33
2024-02-24T21:07:12.360Z,1.70
2024-02-24T21:09:39.026Z,1.77
2024-02-24T21:12:06.602Z,2.13
2024-02-24T21:14:33.348Z,1.30
2024-02-24T21:17:00.281Z,1.30
2024-02-24T21:19:27.030Z,1.20
2024-02-24T21:21:56.038Z,1.33
2024-02-24T21:24:22.809Z,1.25
2024-02-24T21:26:49.537Z,1.30
2024-02-24T21:29:16.274Z,1.00
2024-02-24T21:31:43.064Z,1.10
2024-02-24T21:34:09.905Z,0.60
2024-02-24T21:36:37.947Z,0.65
2024-02-24T21:39:05.224Z,0.65
2024-02-24T21:41:37.457Z,0.70
2024-02-24T21:44:05.168Z,0.38
2024-02-24T21:46:32.475Z,0.50
2024-02-24T21:49:00.467Z,0.52
2024-02-24T21:51:27.292Z,0.60
2024-02-24T21:53:54.256Z,0.45
2024-02-24T21:56:24.347Z,0.47
2024-02-24T21:58:51.249Z,0.45
2024-02-24T22:01:20.030Z,0.65
2024-02-24T22:03:47.556Z,1.33
2024-02-24T22:06:14.580Z,1.00
2024-02-24T22:08:41.348Z,1.00
2024-02-24T22:11:08.226Z,1.15
2024-02-24T22:13:35.441Z,1.17
2024-02-24T22:16:02.247Z,1.40
2024-02-24T22:18:29.461Z,1.50
2024-02-24T22:20:56.439Z,1.75
2024-02-24T22:23:23.378Z,1.67
2024-02-24T22:25:50.281Z,1.67
2024-02-24T22:28:17.109Z,1.80
2024-02-24T22:30:45.145Z,1.52
2024-02-24T22:33:12.185Z,1.92
2024-02-24T22:35:39.051Z,3.13
2024-02-24T22:38:05.825Z,2.90
2024-02-24T22:40:33.054Z,3.13
2024-02-24T22:43:00.048Z,4.00
2024-02-24T22:45:26.909Z,5.05
2024-02-24T22:47:53.836Z,3.92
2024-02-24T22:50:20.746Z,2.78
2024-02-24T22:52:47.473Z,2.50
2024-02-24T22:55:14.273Z,2.95
2024-02-24T22:57:40.967Z,2.65
2024-02-24T23:00:14.677Z,2.75
2024-02-24T23:02:41.808Z,3.15
2024-02-24T23:05:08.995Z,3.03
2024-02-24T23:07:36.047Z,4.10
2024-02-24T23:10:03.978Z,4.05
2024-02-24T23:12:30.850Z,3.85
2024-02-24T23:14:57.668Z,3.45
2024-02-24T23:17:24.566Z,4.13
2024-02-24T23:19:51.324Z,3.45
2024-02-24T23:22:18.099Z,3.30
2024-02-24T23:24:45.334Z,3.65
2024-02-24T23:27:12.510Z,3.78
2024-02-24T23:29:39.576Z,3.50
2024-02-24T23:32:07.062Z,3.63
2024-02-24T23:34:34.017Z,3.90
2024-02-24T23:37:01.369Z,3.50
2024-02-24T23:39:28.333Z,3.28
2024-02-24T23:41:55.125Z,3.80
2024-02-24T23:44:21.926Z,3.50
2024-02-24T23:46:48.858Z,3.25
2024-02-24T23:49:17.352Z,2.92
2024-02-24T23:51:44.531Z,3.58
2024-02-24T23:54:11.354Z,3.70
2024-02-24T23:56:38.366Z,3.60
2024-02-24T23:59:05.099Z,4.20
